sensor_id;sensor_type;location;lat;lon;timestamp;temperature;humidity
15113;DHT22;7657;50.140;7.076;2023-12-07T00:02:13;2.10;99.90
15113;DHT22;7657;50.140;7.076;2023-12-07T00:04:40;2.10;99.90
15113;DHT22;7657;50.140;7.076;2023-12-07T00:07:07;2.20;99.90
15113;DHT22;7657;50.140;7.076;2023-12-07T00:09:34;2.20;99.90
15113;DHT22;7657;50.140;7.076;2023-12-07T00:12:01;2.30;99.90
15113;DHT22;7657;50.140;7.076;2023-12-07T00:14:29;2.20;99.90
15113;DHT22;7657;50.140;7.076;2023-12-07T00:16:56;2.20;99.90
15113;DHT22;7657;50.140;7.076;2023-12-07T00:19:23;2.20;99.90
15113;DHT22;7657;50.140;7.076;2023-12-07T00:21:49;2.40;99.90
15113;DHT22;7657;50.140;7.076;2023-12-07T00:24:16;2.40;99.90
15113;DHT22;7657;50.140;7.076;2023-12-07T00:26:43;2.40;99.90
15113;DHT22;7657;50.140;7.076;2023-12-07T00:29:10;2.40;99.90
15113;DHT22;7657;50.140;7.076;2023-12-07T00:31:38;2.40;99.90
15113;DHT22;7657;50.140;7.076;2023-12-07T00:34:05;2.50;99.90
15113;DHT22;7657;50.140;7.076;2023-12-07T00:36:32;2.50;99.90
15113;DHT22;7657;50.140;7.076;2023-12-07T00:38:59;2.50;99.90
15113;DHT22;7657;50.140;7.076;2023-12-07T00:41:26;2.50;99.90
15113;DHT22;7657;50.140;7.076;2023-12-07T00:43:53;2.50;99.90
15113;DHT22;7657;50.140;7.076;2023-12-07T00:46:20;2.60;99.90
15113;DHT22;7657;50.140;7.076;2023-12-07T00:48:48;2.50;99.90
15113;DHT22;7657;50.140;7.076;2023-12-07T00:51:15;2.50;99.90
15113;DHT22;7657;50.140;7.076;2023-12-07T00:53:42;2.40;99.90
15113;DHT22;7657;50.140;7.076;2023-12-07T00:56:09;2.50;99.90
15113;DHT22;7657;50.140;7.076;2023-12-07T00:58:36;2.50;99.90
15113;DHT22;7657;50.140;7.076;2023-12-07T01:01:04;2.40;99.90
15113;DHT22;7657;50.140;7.076;2023-12-07T01:03:31;2.40;99.90
15113;DHT22;7657;50.140;7.076;2023-12-07T01:05:59;2.40;99.90
15113;DHT22;7657;50.140;7.076;2023-12-07T01:08:26;2.30;99.90
15113;DHT22;7657;50.140;7.076;2023-12-07T01:10:53;2.30;99.90
15113;DHT22;7657;50.140;7.076;2023-12-07T01:13:19;2.30;99.90
15113;DHT22;7657;50.140;7.076;2023-12-07T01:15:46;2.40;99.90
15113;DHT22;7657;50.140;7.076;2023-12-07T01:18:13;2.60;99.90
15113;DHT22;7657;50.140;7.076;2023-12-07T01:20:40;2.70;99.90
15113;DHT22;7657;50.140;7.076;2023-12-07T01:23:08;2.80;99.90
15113;DHT22;7657;50.140;7.076;2023-12-07T01:25:35;2.90;99.90
15113;DHT22;7657;50.140;7.076;2023-12-07T01:28:02;2.70;99.90
15113;DHT22;7657;50.140;7.076;2023-12-07T01:30:29;2.60;99.90
15113;DHT22;7657;50.140;7.076;2023-12-07T01:32:56;2.60;99.90
15113;DHT22;7657;50.140;7.076;2023-12-07T01:35:23;2.40;99.90
15113;DHT22;7657;50.140;7.076;2023-12-07T01:37:50;2.40;99.90
15113;DHT22;7657;50.140;7.076;2023-12-07T01:40:18;2.30;99.90
15113;DHT22;7657;50.140;7.076;2023-12-07T01:42:54;2.20;99.90
15113;DHT22;7657;50.140;7.076;2023-12-07T01:45:21;1.90;99.90
15113;DHT22;7657;50.140;7.076;2023-12-07T01:47:50;2.00;99.90
15113;DHT22;7657;50.140;7.076;2023-12-07T01:50:18;2.20;99.90
15113;DHT22;7657;50.140;7.076;2023-12-07T01:52:51;2.30;99.90
15113;DHT22;7657;50.140;7.076;2023-12-07T01:55:22;2.60;99.90
15113;DHT22;7657;50.140;7.076;2023-12-07T01:57:49;2.70;99.90
15113;DHT22;7657;50.140;7.076;2023-12-07T02:00:16;2.80;99.90
15113;DHT22;7657;50.140;7.076;2023-12-07T02:02:44;2.80;99.90
15113;DHT22;7657;50.140;7.076;2023-12-07T02:05:12;2.90;99.90
15113;DHT22;7657;50.140;7.076;2023-12-07T02:07:40;3.00;99.90
15113;DHT22;7657;50.140;7.076;2023-12-07T02:10:08;3.00;99.90
15113;DHT22;7657;50.140;7.076;2023-12-07T02:12:36;3.00;99.90
15113;DHT22;7657;50.140;7.076;2023-12-07T02:15:04;2.90;99.90
15113;DHT22;7657;50.140;7.076;2023-12-07T02:17:34;2.90;99.90
15113;DHT22;7657;50.140;7.076;2023-12-07T02:20:07;2.80;99.90
15113;DHT22;7657;50.140;7.076;2023-12-07T02:22:41;2.80;99.90
15113;DHT22;7657;50.140;7.076;2023-12-07T02:25:10;2.80;99.90
15113;DHT22;7657;50.140;7.076;2023-12-07T02:27:39;2.80;99.90
15113;DHT22;7657;50.140;7.076;2023-12-07T02:30:07;2.90;99.90
15113;DHT22;7657;50.140;7.076;2023-12-07T02:32:35;2.70;99.90
15113;DHT22;7657;50.140;7.076;2023-12-07T02:35:02;2.70;99.90
15113;DHT22;7657;50.140;7.076;2023-12-07T02:37:33;2.60;99.90
15113;DHT22;7657;50.140;7.076;2023-12-07T02:40:04;2.70;99.90
15113;DHT22;7657;50.140;7.076;2023-12-07T02:42:31;2.80;99.90
15113;DHT22;7657;50.140;7.076;2023-12-07T02:45:02;2.90;99.90
15113;DHT22;7657;50.140;7.076;2023-12-07T02:47:29;3.00;99.90
15113;DHT22;7657;50.140;7.076;2023-12-07T02:49:56;3.10;99.90
15113;DHT22;7657;50.140;7.076;2023-12-07T02:52:23;3.20;99.90
15113;DHT22;7657;50.140;7.076;2023-12-07T02:54:50;3.30;99.90
15113;DHT22;7657;50.140;7.076;2023-12-07T02:57:17;3.40;99.90
15113;DHT22;7657;50.140;7.076;2023-12-07T02:59:44;3.40;99.90
15113;DHT22;7657;50.140;7.076;2023-12-07T03:02:12;3.50;99.90
15113;DHT22;7657;50.140;7.076;2023-12-07T03:04:39;3.50;99.90
15113;DHT22;7657;50.140;7.076;2023-12-07T03:07:06;3.60;99.90
15113;DHT22;7657;50.140;7.076;2023-12-07T03:09:33;3.70;99.90
15113;DHT22;7657;50.140;7.076;2023-12-07T03:11:59;3.70;99.90
15113;DHT22;7657;50.140;7.076;2023-12-07T03:14:26;3.70;99.90
15113;DHT22;7657;50.140;7.076;2023-12-07T03:16:53;3.80;99.90
15113;DHT22;7657;50.140;7.076;2023-12-07T03:19:21;3.80;99.90
15113;DHT22;7657;50.140;7.076;2023-12-07T03:21:48;3.80;99.90
15113;DHT22;7657;50.140;7.076;2023-12-07T03:24:15;3.90;99.90
15113;DHT22;7657;50.140;7.076;2023-12-07T03:26:42;3.80;99.90
15113;DHT22;7657;50.140;7.076;2023-12-07T03:29:09;3.70;99.90
15113;DHT22;7657;50.140;7.076;2023-12-07T03:31:36;3.50;99.90
15113;DHT22;7657;50.140;7.076;2023-12-07T03:34:03;3.50;99.90
15113;DHT22;7657;50.140;7.076;2023-12-07T03:36:32;3.40;99.90
15113;DHT22;7657;50.140;7.076;2023-12-07T03:38:59;3.50;99.90
15113;DHT22;7657;50.140;7.076;2023-12-07T03:41:26;3.50;99.90
15113;DHT22;7657;50.140;7.076;2023-12-07T03:43:53;3.40;99.90
15113;DHT22;7657;50.140;7.076;2023-12-07T03:46:20;3.40;99.90
15113;DHT22;7657;50.140;7.076;2023-12-07T03:48:47;3.50;99.90
15113;DHT22;7657;50.140;7.076;2023-12-07T03:51:14;3.60;99.90
15113;DHT22;7657;50.140;7.076;2023-12-07T03:53:43;3.50;99.90
15113;DHT22;7657;50.140;7.076;2023-12-07T03:56:10;3.50;99.90
15113;DHT22;7657;50.140;7.076;2023-12-07T03:58:37;3.60;99.90
15113;DHT22;7657;50.140;7.076;2023-12-07T04:01:04;3.30;99.90
15113;DHT22;7657;50.140;7.076;2023-12-07T04:03:32;3.30;99.90
15113;DHT22;7657;50.140;7.076;2023-12-07T04:05:59;3.10;99.90
15113;DHT22;7657;50.140;7.076;2023-12-07T04:08:26;3.20;99.90
15113;DHT22;7657;50.140;7.076;2023-12-07T04:10:54;3.10;99.90
15113;DHT22;7657;50.140;7.076;2023-12-07T04:13:21;3.10;99.90
15113;DHT22;7657;50.140;7.076;2023-12-07T04:15:47;3.20;99.90
15113;DHT22;7657;50.140;7.076;2023-12-07T04:18:14;3.30;99.90
15113;DHT22;7657;50.140;7.076;2023-12-07T04:20:41;3.50;99.90
15113;DHT22;7657;50.140;7.076;2023-12-07T04:23:08;3.40;99.90
15113;DHT22;7657;50.140;7.076;2023-12-07T04:25:35;3.40;99.90
15113;DHT22;7657;50.140;7.076;2023-12-07T04:28:03;3.50;99.90
15113;DHT22;7657;50.140;7.076;2023-12-07T04:30:30;3.40;99.90
15113;DHT22;7657;50.140;7.076;2023-12-07T04:32:57;3.30;99.90
15113;DHT22;7657;50.140;7.076;2023-12-07T04:35:24;3.20;99.90
15113;DHT22;7657;50.140;7.076;2023-12-07T04:37:51;3.20;99.90
15113;DHT22;7657;50.140;7.076;2023-12-07T04:40:18;3.20;99.90
15113;DHT22;7657;50.140;7.076;2023-12-07T04:42:44;3.10;99.90
15113;DHT22;7657;50.140;7.076;2023-12-07T04:45:13;3.10;99.90
15113;DHT22;7657;50.140;7.076;2023-12-07T04:47:40;3.20;99.90
15113;DHT22;7657;50.140;7.076;2023-12-07T04:50:07;3.20;99.90
15113;DHT22;7657;50.140;7.076;2023-12-07T04:52:35;3.10;99.90
15113;DHT22;7657;50.140;7.076;2023-12-07T04:55:02;3.10;99.90
15113;DHT22;7657;50.140;7.076;2023-12-07T04:57:29;3.10;99.90
15113;DHT22;7657;50.140;7.076;2023-12-07T04:59:56;3.10;99.90
15113;DHT22;7657;50.140;7.076;2023-12-07T05:02:24;3.00;99.90
15113;DHT22;7657;50.140;7.076;2023-12-07T05:04:53;2.90;99.90
15113;DHT22;7657;50.140;7.076;2023-12-07T05:07:20;2.70;99.90
15113;DHT22;7657;50.140;7.076;2023-12-07T05:09:47;2.90;99.90
15113;DHT22;7657;50.140;7.076;2023-12-07T05:12:14;3.00;99.90
15113;DHT22;7657;50.140;7.076;2023-12-07T05:14:41;3.20;99.90
15113;DHT22;7657;50.140;7.076;2023-12-07T05:17:08;3.30;99.90
15113;DHT22;7657;50.140;7.076;2023-12-07T05:19:36;3.30;99.90
15113;DHT22;7657;50.140;7.076;2023-12-07T05:22:03;3.30;99.90
15113;DHT22;7657;50.140;7.076;2023-12-07T05:24:30;3.30;99.90
15113;DHT22;7657;50.140;7.076;2023-12-07T05:27:00;3.20;99.90
15113;DHT22;7657;50.140;7.076;2023-12-07T05:29:27;3.20;99.90
15113;DHT22;7657;50.140;7.076;2023-12-07T05:31:53;3.20;99.90
15113;DHT22;7657;50.140;7.076;2023-12-07T05:34:20;3.30;99.90
15113;DHT22;7657;50.140;7.076;2023-12-07T05:36:48;3.40;99.90
15113;DHT22;7657;50.140;7.076;2023-12-07T05:39:15;3.20;99.90
15113;DHT22;7657;50.140;7.076;2023-12-07T05:41:43;3.20;99.90
15113;DHT22;7657;50.140;7.076;2023-12-07T05:44:12;3.10;99.90
15113;DHT22;7657;50.140;7.076;2023-12-07T05:46:39;3.10;99.90
15113;DHT22;7657;50.140;7.076;2023-12-07T05:49:09;3.10;99.90
15113;DHT22;7657;50.140;7.076;2023-12-07T05:51:36;2.70;99.90
15113;DHT22;7657;50.140;7.076;2023-12-07T05:54:05;2.70;99.90
15113;DHT22;7657;50.140;7.076;2023-12-07T05:56:32;2.70;99.90
15113;DHT22;7657;50.140;7.076;2023-12-07T05:58:59;2.80;99.90
15113;DHT22;7657;50.140;7.076;2023-12-07T06:01:26;2.80;99.90
15113;DHT22;7657;50.140;7.076;2023-12-07T06:03:53;2.80;99.90
15113;DHT22;7657;50.140;7.076;2023-12-07T06:06:20;2.70;99.90
15113;DHT22;7657;50.140;7.076;2023-12-07T06:08:47;2.70;99.90
15113;DHT22;7657;50.140;7.076;2023-12-07T06:11:15;2.60;99.90
15113;DHT22;7657;50.140;7.076;2023-12-07T06:13:42;2.50;99.90
15113;DHT22;7657;50.140;7.076;2023-12-07T06:16:12;2.50;99.90
15113;DHT22;7657;50.140;7.076;2023-12-07T06:18:40;2.60;99.90
15113;DHT22;7657;50.140;7.076;2023-12-07T06:21:07;2.80;99.90
15113;DHT22;7657;50.140;7.076;2023-12-07T06:23:33;2.80;99.90
15113;DHT22;7657;50.140;7.076;2023-12-07T06:26:01;2.60;99.90
15113;DHT22;7657;50.140;7.076;2023-12-07T06:28:31;2.60;99.90
15113;DHT22;7657;50.140;7.076;2023-12-07T06:31:04;2.70;99.90
15113;DHT22;7657;50.140;7.076;2023-12-07T06:33:31;2.70;99.90
15113;DHT22;7657;50.140;7.076;2023-12-07T06:35:58;2.40;99.90
15113;DHT22;7657;50.140;7.076;2023-12-07T06:38:25;2.50;99.90
15113;DHT22;7657;50.140;7.076;2023-12-07T06:40:52;2.40;99.90
15113;DHT22;7657;50.140;7.076;2023-12-07T06:43:18;2.60;99.90
15113;DHT22;7657;50.140;7.076;2023-12-07T06:45:47;2.60;99.90
15113;DHT22;7657;50.140;7.076;2023-12-07T06:48:14;2.60;99.90
15113;DHT22;7657;50.140;7.076;2023-12-07T06:50:40;2.80;99.90
15113;DHT22;7657;50.140;7.076;2023-12-07T06:53:07;2.90;99.90
15113;DHT22;7657;50.140;7.076;2023-12-07T06:55:34;3.10;99.90
15113;DHT22;7657;50.140;7.076;2023-12-07T06:58:01;3.20;99.90
15113;DHT22;7657;50.140;7.076;2023-12-07T07:00:28;3.30;99.90
15113;DHT22;7657;50.140;7.076;2023-12-07T07:02:56;3.30;99.90
15113;DHT22;7657;50.140;7.076;2023-12-07T07:05:23;3.10;99.90
15113;DHT22;7657;50.140;7.076;2023-12-07T07:07:50;3.20;99.90
15113;DHT22;7657;50.140;7.076;2023-12-07T07:10:17;3.40;99.90
15113;DHT22;7657;50.140;7.076;2023-12-07T07:12:44;3.40;99.90
15113;DHT22;7657;50.140;7.076;2023-12-07T07:15:11;3.50;99.90
15113;DHT22;7657;50.140;7.076;2023-12-07T07:17:38;3.50;99.90
15113;DHT22;7657;50.140;7.076;2023-12-07T07:20:08;3.50;99.90
15113;DHT22;7657;50.140;7.076;2023-12-07T07:22:35;3.40;99.90
15113;DHT22;7657;50.140;7.076;2023-12-07T07:25:03;3.40;99.90
15113;DHT22;7657;50.140;7.076;2023-12-07T07:27:30;3.50;99.90
15113;DHT22;7657;50.140;7.076;2023-12-07T07:29:57;3.60;99.90
15113;DHT22;7657;50.140;7.076;2023-12-07T07:32:24;3.50;99.90
15113;DHT22;7657;50.140;7.076;2023-12-07T07:34:50;3.50;99.90
15113;DHT22;7657;50.140;7.076;2023-12-07T07:37:19;3.50;99.90
15113;DHT22;7657;50.140;7.076;2023-12-07T07:39:45;3.30;99.90
15113;DHT22;7657;50.140;7.076;2023-12-07T07:42:12;3.10;99.90
15113;DHT22;7657;50.140;7.076;2023-12-07T07:44:39;3.10;99.90
15113;DHT22;7657;50.140;7.076;2023-12-07T07:47:06;3.20;99.90
15113;DHT22;7657;50.140;7.076;2023-12-07T07:49:33;3.20;99.90
15113;DHT22;7657;50.140;7.076;2023-12-07T07:52:00;3.10;99.90
15113;DHT22;7657;50.140;7.076;2023-12-07T07:54:28;3.00;99.90
15113;DHT22;7657;50.140;7.076;2023-12-07T07:56:55;3.10;99.90
15113;DHT22;7657;50.140;7.076;2023-12-07T07:59:22;3.20;99.90
15113;DHT22;7657;50.140;7.076;2023-12-07T08:01:49;3.30;99.90
15113;DHT22;7657;50.140;7.076;2023-12-07T08:04:16;3.40;99.90
15113;DHT22;7657;50.140;7.076;2023-12-07T08:06:44;3.50;99.90
15113;DHT22;7657;50.140;7.076;2023-12-07T08:09:10;3.50;99.90
15113;DHT22;7657;50.140;7.076;2023-12-07T08:11:39;3.50;99.90
15113;DHT22;7657;50.140;7.076;2023-12-07T08:14:06;3.50;99.90
15113;DHT22;7657;50.140;7.076;2023-12-07T08:16:33;3.50;99.90
15113;DHT22;7657;50.140;7.076;2023-12-07T08:19:00;3.60;99.90
15113;DHT22;7657;50.140;7.076;2023-12-07T08:21:27;3.60;99.90
15113;DHT22;7657;50.140;7.076;2023-12-07T08:23:55;3.60;99.90
15113;DHT22;7657;50.140;7.076;2023-12-07T08:26:22;3.60;99.90
15113;DHT22;7657;50.140;7.076;2023-12-07T08:28:50;3.60;99.90
15113;DHT22;7657;50.140;7.076;2023-12-07T08:31:19;3.60;99.90
15113;DHT22;7657;50.140;7.076;2023-12-07T08:33:48;3.60;99.90
15113;DHT22;7657;50.140;7.076;2023-12-07T08:36:15;3.70;99.90
15113;DHT22;7657;50.140;7.076;2023-12-07T08:38:42;3.70;99.90
15113;DHT22;7657;50.140;7.076;2023-12-07T08:41:09;3.60;99.90
15113;DHT22;7657;50.140;7.076;2023-12-07T08:43:36;3.30;99.90
15113;DHT22;7657;50.140;7.076;2023-12-07T08:46:04;3.30;99.90
15113;DHT22;7657;50.140;7.076;2023-12-07T08:48:32;3.50;99.90
15113;DHT22;7657;50.140;7.076;2023-12-07T08:50:59;3.60;99.90
15113;DHT22;7657;50.140;7.076;2023-12-07T08:53:27;3.60;99.90
15113;DHT22;7657;50.140;7.076;2023-12-07T08:55:54;3.70;99.90
15113;DHT22;7657;50.140;7.076;2023-12-07T08:58:20;3.80;99.90
15113;DHT22;7657;50.140;7.076;2023-12-07T09:00:47;3.80;99.90
15113;DHT22;7657;50.140;7.076;2023-12-07T09:03:16;3.90;99.90
15113;DHT22;7657;50.140;7.076;2023-12-07T09:05:42;4.00;99.90
15113;DHT22;7657;50.140;7.076;2023-12-07T09:08:09;4.10;99.90
15113;DHT22;7657;50.140;7.076;2023-12-07T09:10:36;4.10;99.90
15113;DHT22;7657;50.140;7.076;2023-12-07T09:13:03;4.20;99.90
15113;DHT22;7657;50.140;7.076;2023-12-07T09:15:31;4.20;99.90
15113;DHT22;7657;50.140;7.076;2023-12-07T09:17:58;4.10;99.90
15113;DHT22;7657;50.140;7.076;2023-12-07T09:20:26;4.00;99.90
15113;DHT22;7657;50.140;7.076;2023-12-07T09:22:53;3.80;99.90
15113;DHT22;7657;50.140;7.076;2023-12-07T09:25:23;3.80;99.90
15113;DHT22;7657;50.140;7.076;2023-12-07T09:27:53;3.90;99.90
15113;DHT22;7657;50.140;7.076;2023-12-07T09:30:20;4.00;99.90
15113;DHT22;7657;50.140;7.076;2023-12-07T09:32:47;3.90;99.90
15113;DHT22;7657;50.140;7.076;2023-12-07T09:35:14;3.80;99.90
15113;DHT22;7657;50.140;7.076;2023-12-07T09:37:46;4.00;99.90
15113;DHT22;7657;50.140;7.076;2023-12-07T09:40:16;4.10;99.90
15113;DHT22;7657;50.140;7.076;2023-12-07T09:42:45;3.80;99.90
15113;DHT22;7657;50.140;7.076;2023-12-07T09:45:12;4.00;99.90
15113;DHT22;7657;50.140;7.076;2023-12-07T09:47:39;4.10;99.90
15113;DHT22;7657;50.140;7.076;2023-12-07T09:50:08;4.20;99.90
15113;DHT22;7657;50.140;7.076;2023-12-07T09:52:35;4.20;99.90
15113;DHT22;7657;50.140;7.076;2023-12-07T09:55:04;4.30;99.90
15113;DHT22;7657;50.140;7.076;2023-12-07T09:57:32;4.40;99.90
15113;DHT22;7657;50.140;7.076;2023-12-07T09:59:59;4.50;99.90
15113;DHT22;7657;50.140;7.076;2023-12-07T10:02:26;4.50;99.90
15113;DHT22;7657;50.140;7.076;2023-12-07T10:05:03;4.50;99.90
15113;DHT22;7657;50.140;7.076;2023-12-07T10:07:33;4.60;99.90
15113;DHT22;7657;50.140;7.076;2023-12-07T10:10:00;4.60;99.90
15113;DHT22;7657;50.140;7.076;2023-12-07T10:12:30;4.50;99.90
15113;DHT22;7657;50.140;7.076;2023-12-07T10:14:59;4.20;99.90
15113;DHT22;7657;50.140;7.076;2023-12-07T10:17:43;4.20;99.90
15113;DHT22;7657;50.140;7.076;2023-12-07T10:20:12;4.30;99.90
15113;DHT22;7657;50.140;7.076;2023-12-07T10:22:39;4.40;99.90
15113;DHT22;7657;50.140;7.076;2023-12-07T10:25:07;4.50;99.90
15113;DHT22;7657;50.140;7.076;2023-12-07T10:27:39;4.50;99.90
15113;DHT22;7657;50.140;7.076;2023-12-07T10:30:09;4.60;99.90
15113;DHT22;7657;50.140;7.076;2023-12-07T10:32:37;4.70;99.90
15113;DHT22;7657;50.140;7.076;2023-12-07T10:35:07;4.70;99.90
15113;DHT22;7657;50.140;7.076;2023-12-07T10:37:34;4.80;99.90
15113;DHT22;7657;50.140;7.076;2023-12-07T10:40:01;4.80;99.90
15113;DHT22;7657;50.140;7.076;2023-12-07T10:42:33;4.90;99.90
15113;DHT22;7657;50.140;7.076;2023-12-07T10:45:04;4.90;99.90
15113;DHT22;7657;50.140;7.076;2023-12-07T10:47:34;4.80;99.90
15113;DHT22;7657;50.140;7.076;2023-12-07T10:50:05;4.90;99.90
15113;DHT22;7657;50.140;7.076;2023-12-07T10:52:36;5.10;99.90
15113;DHT22;7657;50.140;7.076;2023-12-07T10:55:07;5.20;99.90
15113;DHT22;7657;50.140;7.076;2023-12-07T10:57:34;5.10;99.90
15113;DHT22;7657;50.140;7.076;2023-12-07T11:00:07;5.20;99.90
15113;DHT22;7657;50.140;7.076;2023-12-07T11:02:35;5.30;99.90
15113;DHT22;7657;50.140;7.076;2023-12-07T11:05:03;5.40;99.90
15113;DHT22;7657;50.140;7.076;2023-12-07T11:07:38;5.40;99.90
15113;DHT22;7657;50.140;7.076;2023-12-07T11:10:15;5.30;99.90
15113;DHT22;7657;50.140;7.076;2023-12-07T11:12:48;5.30;99.90
15113;DHT22;7657;50.140;7.076;2023-12-07T11:15:18;5.30;99.90
15113;DHT22;7657;50.140;7.076;2023-12-07T11:17:54;5.30;99.90
15113;DHT22;7657;50.140;7.076;2023-12-07T11:20:22;5.30;99.90
15113;DHT22;7657;50.140;7.076;2023-12-07T11:22:50;5.20;99.90
15113;DHT22;7657;50.140;7.076;2023-12-07T11:25:17;5.20;99.90
15113;DHT22;7657;50.140;7.076;2023-12-07T11:27:45;5.10;99.90
15113;DHT22;7657;50.140;7.076;2023-12-07T11:30:14;5.10;99.90
15113;DHT22;7657;50.140;7.076;2023-12-07T11:32:43;5.10;99.90
15113;DHT22;7657;50.140;7.076;2023-12-07T11:35:13;5.10;99.90
15113;DHT22;7657;50.140;7.076;2023-12-07T11:38:03;5.20;99.90
15113;DHT22;7657;50.140;7.076;2023-12-07T11:40:32;5.10;99.90
15113;DHT22;7657;50.140;7.076;2023-12-07T11:43:00;5.00;99.90
15113;DHT22;7657;50.140;7.076;2023-12-07T11:45:40;5.10;99.90
15113;DHT22;7657;50.140;7.076;2023-12-07T11:48:11;5.20;99.90
15113;DHT22;7657;50.140;7.076;2023-12-07T11:50:59;5.20;99.90
15113;DHT22;7657;50.140;7.076;2023-12-07T11:53:27;5.10;99.90
15113;DHT22;7657;50.140;7.076;2023-12-07T11:55:56;4.90;99.90
15113;DHT22;7657;50.140;7.076;2023-12-07T11:58:24;4.80;99.90
15113;DHT22;7657;50.140;7.076;2023-12-07T12:00:52;4.90;99.90
15113;DHT22;7657;50.140;7.076;2023-12-07T12:03:21;5.00;99.90
15113;DHT22;7657;50.140;7.076;2023-12-07T12:05:47;4.80;99.90
15113;DHT22;7657;50.140;7.076;2023-12-07T12:08:15;5.00;99.90
15113;DHT22;7657;50.140;7.076;2023-12-07T12:10:43;5.00;99.90
15113;DHT22;7657;50.140;7.076;2023-12-07T12:13:10;5.10;99.90
15113;DHT22;7657;50.140;7.076;2023-12-07T12:15:37;5.10;99.90
15113;DHT22;7657;50.140;7.076;2023-12-07T12:18:04;5.00;99.90
15113;DHT22;7657;50.140;7.076;2023-12-07T12:20:33;5.10;99.90
15113;DHT22;7657;50.140;7.076;2023-12-07T12:23:00;5.20;99.90
15113;DHT22;7657;50.140;7.076;2023-12-07T12:25:28;5.20;99.90
15113;DHT22;7657;50.140;7.076;2023-12-07T12:27:56;5.20;99.90
15113;DHT22;7657;50.140;7.076;2023-12-07T12:30:24;5.10;99.90
15113;DHT22;7657;50.140;7.076;2023-12-07T12:32:51;5.30;99.90
15113;DHT22;7657;50.140;7.076;2023-12-07T12:35:18;5.30;99.90
15113;DHT22;7657;50.140;7.076;2023-12-07T12:37:48;5.30;99.90
15113;DHT22;7657;50.140;7.076;2023-12-07T12:40:16;5.30;99.90
15113;DHT22;7657;50.140;7.076;2023-12-07T12:42:45;5.40;99.90
15113;DHT22;7657;50.140;7.076;2023-12-07T12:45:12;5.30;99.90
15113;DHT22;7657;50.140;7.076;2023-12-07T12:47:40;5.20;99.90
15113;DHT22;7657;50.140;7.076;2023-12-07T12:50:07;5.30;99.90
15113;DHT22;7657;50.140;7.076;2023-12-07T12:52:34;5.40;99.90
15113;DHT22;7657;50.140;7.076;2023-12-07T12:55:07;5.50;99.90
15113;DHT22;7657;50.140;7.076;2023-12-07T12:57:35;5.50;99.90
15113;DHT22;7657;50.140;7.076;2023-12-07T13:00:04;5.60;99.90
15113;DHT22;7657;50.140;7.076;2023-12-07T13:02:32;5.60;99.90
15113;DHT22;7657;50.140;7.076;2023-12-07T13:04:59;5.70;99.90
15113;DHT22;7657;50.140;7.076;2023-12-07T13:07:26;5.70;99.90
15113;DHT22;7657;50.140;7.076;2023-12-07T13:09:53;5.70;99.90
15113;DHT22;7657;50.140;7.076;2023-12-07T13:12:21;5.80;99.90
15113;DHT22;7657;50.140;7.076;2023-12-07T13:14:49;5.80;99.90
15113;DHT22;7657;50.140;7.076;2023-12-07T13:17:16;5.80;99.90
15113;DHT22;7657;50.140;7.076;2023-12-07T13:19:43;5.70;99.90
15113;DHT22;7657;50.140;7.076;2023-12-07T13:22:10;5.70;99.90
15113;DHT22;7657;50.140;7.076;2023-12-07T13:24:37;5.60;99.90
15113;DHT22;7657;50.140;7.076;2023-12-07T13:27:04;5.50;99.90
15113;DHT22;7657;50.140;7.076;2023-12-07T13:29:32;5.60;99.90
15113;DHT22;7657;50.140;7.076;2023-12-07T13:31:59;5.40;99.90
15113;DHT22;7657;50.140;7.076;2023-12-07T13:34:26;5.30;99.90
15113;DHT22;7657;50.140;7.076;2023-12-07T13:36:53;5.40;99.90
15113;DHT22;7657;50.140;7.076;2023-12-07T13:39:20;5.20;99.90
15113;DHT22;7657;50.140;7.076;2023-12-07T13:41:47;5.20;99.90
15113;DHT22;7657;50.140;7.076;2023-12-07T13:44:15;5.20;99.90
15113;DHT22;7657;50.140;7.076;2023-12-07T13:46:45;5.20;99.90
15113;DHT22;7657;50.140;7.076;2023-12-07T13:49:12;5.20;99.90
15113;DHT22;7657;50.140;7.076;2023-12-07T13:51:40;5.20;99.90
15113;DHT22;7657;50.140;7.076;2023-12-07T13:54:07;5.20;99.90
15113;DHT22;7657;50.140;7.076;2023-12-07T13:56:34;5.20;99.90
15113;DHT22;7657;50.140;7.076;2023-12-07T13:59:01;5.20;99.90
15113;DHT22;7657;50.140;7.076;2023-12-07T14:01:28;5.10;99.90
15113;DHT22;7657;50.140;7.076;2023-12-07T14:03:58;5.10;99.90
15113;DHT22;7657;50.140;7.076;2023-12-07T14:06:27;5.10;99.90
15113;DHT22;7657;50.140;7.076;2023-12-07T14:08:54;5.00;99.90
15113;DHT22;7657;50.140;7.076;2023-12-07T14:11:21;5.00;99.90
15113;DHT22;7657;50.140;7.076;2023-12-07T14:13:48;5.00;99.90
15113;DHT22;7657;50.140;7.076;2023-12-07T14:16:19;5.00;99.90
15113;DHT22;7657;50.140;7.076;2023-12-07T14:18:46;4.90;99.90
15113;DHT22;7657;50.140;7.076;2023-12-07T14:21:19;4.70;99.90
15113;DHT22;7657;50.140;7.076;2023-12-07T14:23:46;4.50;99.90
15113;DHT22;7657;50.140;7.076;2023-12-07T14:26:13;4.30;99.90
15113;DHT22;7657;50.140;7.076;2023-12-07T14:28:40;4.20;99.90
15113;DHT22;7657;50.140;7.076;2023-12-07T14:31:07;4.20;99.90
15113;DHT22;7657;50.140;7.076;2023-12-07T14:33:39;4.10;99.90
15113;DHT22;7657;50.140;7.076;2023-12-07T14:36:09;4.10;99.90
15113;DHT22;7657;50.140;7.076;2023-12-07T14:38:38;4.00;99.90
15113;DHT22;7657;50.140;7.076;2023-12-07T14:41:06;4.20;99.90
15113;DHT22;7657;50.140;7.076;2023-12-07T14:43:33;4.30;99.90
15113;DHT22;7657;50.140;7.076;2023-12-07T14:46:00;4.10;99.90
15113;DHT22;7657;50.140;7.076;2023-12-07T14:48:30;4.20;99.90
15113;DHT22;7657;50.140;7.076;2023-12-07T14:50:59;4.30;99.90
15113;DHT22;7657;50.140;7.076;2023-12-07T14:53:29;4.30;99.90
15113;DHT22;7657;50.140;7.076;2023-12-07T14:56:03;4.30;99.90
15113;DHT22;7657;50.140;7.076;2023-12-07T14:58:30;4.20;99.90
15113;DHT22;7657;50.140;7.076;2023-12-07T15:01:01;4.10;99.90
15113;DHT22;7657;50.140;7.076;2023-12-07T15:03:28;4.10;99.90
15113;DHT22;7657;50.140;7.076;2023-12-07T15:05:55;4.00;99.90
15113;DHT22;7657;50.140;7.076;2023-12-07T15:08:22;4.00;99.90
15113;DHT22;7657;50.140;7.076;2023-12-07T15:10:48;3.90;99.90
15113;DHT22;7657;50.140;7.076;2023-12-07T15:13:19;3.90;99.90
15113;DHT22;7657;50.140;7.076;2023-12-07T15:15:46;3.90;99.90
15113;DHT22;7657;50.140;7.076;2023-12-07T15:18:12;3.90;99.90
15113;DHT22;7657;50.140;7.076;2023-12-07T15:20:39;4.00;99.90
15113;DHT22;7657;50.140;7.076;2023-12-07T15:23:06;4.00;99.90
15113;DHT22;7657;50.140;7.076;2023-12-07T15:25:33;3.90;99.90
15113;DHT22;7657;50.140;7.076;2023-12-07T15:28:00;3.90;99.90
15113;DHT22;7657;50.140;7.076;2023-12-07T15:30:28;3.90;99.90
15113;DHT22;7657;50.140;7.076;2023-12-07T15:32:55;3.70;99.90
15113;DHT22;7657;50.140;7.076;2023-12-07T15:35:22;3.60;99.90
15113;DHT22;7657;50.140;7.076;2023-12-07T15:37:49;3.60;99.90
15113;DHT22;7657;50.140;7.076;2023-12-07T15:40:16;3.50;99.90
15113;DHT22;7657;50.140;7.076;2023-12-07T15:42:43;3.60;99.90
15113;DHT22;7657;50.140;7.076;2023-12-07T15:45:10;3.50;99.90
15113;DHT22;7657;50.140;7.076;2023-12-07T15:47:38;3.40;99.90
15113;DHT22;7657;50.140;7.076;2023-12-07T15:50:06;3.40;99.90
15113;DHT22;7657;50.140;7.076;2023-12-07T15:52:33;3.40;99.90
15113;DHT22;7657;50.140;7.076;2023-12-07T15:55:00;3.50;99.90
15113;DHT22;7657;50.140;7.076;2023-12-07T15:57:27;3.60;99.90
15113;DHT22;7657;50.140;7.076;2023-12-07T15:59:54;3.50;99.90
15113;DHT22;7657;50.140;7.076;2023-12-07T16:02:21;3.40;99.90
15113;DHT22;7657;50.140;7.076;2023-12-07T16:04:49;3.50;99.90
15113;DHT22;7657;50.140;7.076;2023-12-07T16:07:18;3.50;99.90